sensor_id;sensor_type;location;lat;lon;timestamp;pressure;altitude;pressure_sealevel;temperature;humidity
22104;BME280;11218;48.886;9.426;2023-04-15T00:00:56;97048.97;;;7.15;73.67
22104;BME280;11218;48.886;9.426;2023-04-15T00:03:25;97047.81;;;7.06;73.86
22104;BME280;11218;48.886;9.426;2023-04-15T00:05:56;97042.66;;;7.00;73.69
22104;BME280;11218;48.886;9.426;2023-04-15T00:08:28;97046.91;;;6.96;74.06
22104;BME280;11218;48.886;9.426;2023-04-15T00:10:58;97037.19;;;6.89;74.66
22104;BME280;11218;48.886;9.426;2023-04-15T00:13:32;97042.84;;;6.93;75.18
22104;BME280;11218;48.886;9.426;2023-04-15T00:16:06;97037.81;;;6.97;75.01
22104;BME280;11218;48.886;9.426;2023-04-15T00:18:38;97037.56;;;6.98;75.62
22104;BME280;11218;48.886;9.426;2023-04-15T00:21:07;97035.44;;;7.00;75.18
22104;BME280;11218;48.886;9.426;2023-04-15T00:23:38;97036.25;;;7.01;75.00
22104;BME280;11218;48.886;9.426;2023-04-15T00:26:08;97039.50;;;7.03;75.66
22104;BME280;11218;48.886;9.426;2023-04-15T00:28:38;97036.81;;;7.03;74.99
22104;BME280;11218;48.886;9.426;2023-04-15T00:31:07;97033.88;;;7.04;75.32
22104;BME280;11218;48.886;9.426;2023-04-15T00:33:37;97036.00;;;7.02;74.60
22104;BME280;11218;48.886;9.426;2023-04-15T00:36:06;97035.44;;;7.00;74.99
22104;BME280;11218;48.886;9.426;2023-04-15T00:38:38;97032.53;;;7.02;74.65
22104;BME280;11218;48.886;9.426;2023-04-15T00:41:08;97034.34;;;6.96;74.19
22104;BME280;11218;48.886;9.426;2023-04-15T00:43:39;97034.03;;;6.92;74.86
22104;BME280;11218;48.886;9.426;2023-04-15T00:46:08;97034.28;;;6.91;74.97
22104;BME280;11218;48.886;9.426;2023-04-15T00:48:37;97037.19;;;6.89;74.59
22104;BME280;11218;48.886;9.426;2023-04-15T00:51:06;97032.41;;;6.91;74.50
22104;BME280;11218;48.886;9.426;2023-04-15T00:53:38;97033.97;;;6.87;75.31
22104;BME280;11218;48.886;9.426;2023-04-15T00:56:06;97030.50;;;6.87;74.57
22104;BME280;11218;48.886;9.426;2023-04-15T00:58:36;97033.16;;;6.87;74.97
22104;BME280;11218;48.886;9.426;2023-04-15T01:01:05;97036.41;;;6.89;75.10
22104;BME280;11218;48.886;9.426;2023-04-15T01:03:35;97033.72;;;6.89;75.18
22104;BME280;11218;48.886;9.426;2023-04-15T01:06:05;97034.53;;;6.89;75.36
22104;BME280;11218;48.886;9.426;2023-04-15T01:08:35;97033.66;;;6.84;75.56
22104;BME280;11218;48.886;9.426;2023-04-15T01:11:06;97040.88;;;6.83;75.61
22104;BME280;11218;48.886;9.426;2023-04-15T01:13:37;97037.66;;;6.81;75.65
22104;BME280;11218;48.886;9.426;2023-04-15T01:16:07;97036.03;;;6.80;74.96
22104;BME280;11218;48.886;9.426;2023-04-15T01:18:36;97029.31;;;6.78;75.89
22104;BME280;11218;48.886;9.426;2023-04-15T01:21:06;97023.66;;;6.74;75.76
22104;BME280;11218;48.886;9.426;2023-04-15T01:23:36;97028.19;;;6.74;74.85
22104;BME280;11218;48.886;9.426;2023-04-15T01:26:07;97022.03;;;6.73;75.42
22104;BME280;11218;48.886;9.426;2023-04-15T01:28:36;97028.13;;;6.69;75.50
22104;BME280;11218;48.886;9.426;2023-04-15T01:31:07;97017.97;;;6.66;75.15
22104;BME280;11218;48.886;9.426;2023-04-15T01:33:37;97015.25;;;6.61;75.39
22104;BME280;11218;48.886;9.426;2023-04-15T01:36:06;97021.41;;;6.61;74.83
22104;BME280;11218;48.886;9.426;2023-04-15T01:38:37;97017.53;;;6.52;75.52
22104;BME280;11218;48.886;9.426;2023-04-15T01:41:08;97006.28;;;6.50;75.37
22104;BME280;11218;48.886;9.426;2023-04-15T01:43:38;97018.03;;;6.49;76.17
22104;BME280;11218;48.886;9.426;2023-04-15T01:46:07;97007.91;;;6.51;75.77
22104;BME280;11218;48.886;9.426;2023-04-15T01:48:36;97014.75;;;6.42;76.19
22104;BME280;11218;48.886;9.426;2023-04-15T01:51:05;97024.56;;;6.36;76.91
22104;BME280;11218;48.886;9.426;2023-04-15T01:53:34;97026.66;;;6.34;76.74
22104;BME280;11218;48.886;9.426;2023-04-15T01:56:04;97026.09;;;6.32;76.68
22104;BME280;11218;48.886;9.426;2023-04-15T01:58:34;97027.97;;;6.32;76.28
22104;BME280;11218;48.886;9.426;2023-04-15T02:01:03;97025.97;;;6.22;75.95
22104;BME280;11218;48.886;9.426;2023-04-15T02:03:33;97019.75;;;6.16;76.93
22104;BME280;11218;48.886;9.426;2023-04-15T02:06:02;97026.47;;;6.19;75.63
22104;BME280;11218;48.886;9.426;2023-04-15T02:08:32;97031.41;;;6.10;77.00
22104;BME280;11218;48.886;9.426;2023-04-15T02:11:01;97024.06;;;6.01;77.50
22104;BME280;11218;48.886;9.426;2023-04-15T02:13:30;97023.47;;;6.15;76.92
22104;BME280;11218;48.886;9.426;2023-04-15T02:16:00;97026.13;;;5.93;77.32
22104;BME280;11218;48.886;9.426;2023-04-15T02:18:29;97022.47;;;5.83;78.04
22104;BME280;11218;48.886;9.426;2023-04-15T02:20:58;97022.16;;;5.79;78.67
22104;BME280;11218;48.886;9.426;2023-04-15T02:23:26;97023.22;;;5.78;78.36
22104;BME280;11218;48.886;9.426;2023-04-15T02:25:54;97025.38;;;5.81;77.93
22104;BME280;11218;48.886;9.426;2023-04-15T02:28:22;97018.69;;;5.79;78.31
22104;BME280;11218;48.886;9.426;2023-04-15T02:30:50;97022.97;;;5.80;77.53
22104;BME280;11218;48.886;9.426;2023-04-15T02:33:22;97014.63;;;5.76;78.72
22104;BME280;11218;48.886;9.426;2023-04-15T02:35:51;97022.88;;;5.75;78.64
22104;BME280;11218;48.886;9.426;2023-04-15T02:38:21;97023.94;;;5.74;78.46
22104;BME280;11218;48.886;9.426;2023-04-15T02:40:50;97006.31;;;5.73;79.17
22104;BME280;11218;48.886;9.426;2023-04-15T02:43:19;97014.31;;;5.73;78.92
22104;BME280;11218;48.886;9.426;2023-04-15T02:45:49;97011.41;;;5.74;78.99
22104;BME280;11218;48.886;9.426;2023-04-15T02:48:18;97024.81;;;5.79;77.92
22104;BME280;11218;48.886;9.426;2023-04-15T02:50:49;97028.56;;;5.78;77.62
22104;BME280;11218;48.886;9.426;2023-04-15T02:53:19;97006.56;;;5.71;77.97
22104;BME280;11218;48.886;9.426;2023-04-15T02:55:48;97010.84;;;5.72;78.52
22104;BME280;11218;48.886;9.426;2023-04-15T02:58:17;97014.06;;;5.74;77.93
22104;BME280;11218;48.886;9.426;2023-04-15T03:00:47;97003.56;;;5.68;77.61
22104;BME280;11218;48.886;9.426;2023-04-15T03:03:18;97015.53;;;5.65;78.06
22104;BME280;11218;48.886;9.426;2023-04-15T03:05:47;97014.97;;;5.63;78.07
22104;BME280;11218;48.886;9.426;2023-04-15T03:08:17;97023.06;;;5.68;78.66
22104;BME280;11218;48.886;9.426;2023-04-15T03:10:48;97015.84;;;5.69;78.36
22104;BME280;11218;48.886;9.426;2023-04-15T03:13:19;97020.38;;;5.68;78.60
22104;BME280;11218;48.886;9.426;2023-04-15T03:15:49;97021.50;;;5.72;78.02
22104;BME280;11218;48.886;9.426;2023-04-15T03:18:20;97017.22;;;5.71;78.74
22104;BME280;11218;48.886;9.426;2023-04-15T03:20:50;97017.56;;;5.75;77.82
22104;BME280;11218;48.886;9.426;2023-04-15T03:23:21;97013.03;;;5.75;78.37
22104;BME280;11218;48.886;9.426;2023-04-15T03:25:51;97007.28;;;5.67;78.27
22104;BME280;11218;48.886;9.426;2023-04-15T03:28:23;97013.91;;;5.64;77.34
22104;BME280;11218;48.886;9.426;2023-04-15T03:30:54;97010.13;;;5.60;77.97
22104;BME280;11218;48.886;9.426;2023-04-15T03:33:25;97010.34;;;5.58;77.35
22104;BME280;11218;48.886;9.426;2023-04-15T03:35:54;97008.75;;;5.57;77.63
22104;BME280;11218;48.886;9.426;2023-04-15T03:38:26;97006.81;;;5.53;78.02
22104;BME280;11218;48.886;9.426;2023-04-15T03:40:57;96999.59;;;5.53;77.99
22104;BME280;11218;48.886;9.426;2023-04-15T03:43:25;97002.44;;;5.47;77.62
22104;BME280;11218;48.886;9.426;2023-04-15T03:45:55;96999.03;;;5.51;78.74
22104;BME280;11218;48.886;9.426;2023-04-15T03:48:28;97009.72;;;5.51;79.03
22104;BME280;11218;48.886;9.426;2023-04-15T03:50:58;97004.13;;;5.53;78.09
22104;BME280;11218;48.886;9.426;2023-04-15T03:53:30;97002.44;;;5.47;78.01
22104;BME280;11218;48.886;9.426;2023-04-15T03:55:59;97001.63;;;5.46;78.98
22104;BME280;11218;48.886;9.426;2023-04-15T03:58:29;97001.13;;;5.49;78.87
22104;BME280;11218;48.886;9.426;2023-04-15T04:00:59;97010.28;;;5.53;79.19
22104;BME280;11218;48.886;9.426;2023-04-15T04:03:30;97005.19;;;5.52;79.10
22104;BME280;11218;48.886;9.426;2023-04-15T04:06:00;97005.19;;;5.52;79.65
22104;BME280;11218;48.886;9.426;2023-04-15T04:08:30;97004.84;;;5.48;78.84
22104;BME280;11218;48.886;9.426;2023-04-15T04:10:58;97000.91;;;5.51;79.49
22104;BME280;11218;48.886;9.426;2023-04-15T04:13:26;97005.19;;;5.52;79.29
22104;BME280;11218;48.886;9.426;2023-04-15T04:15:54;97007.28;;;5.50;79.36
22104;BME280;11218;48.886;9.426;2023-04-15T04:18:22;97009.16;;;5.49;79.35
22104;BME280;11218;48.886;9.426;2023-04-15T04:20:50;97015.03;;;5.51;79.61
22104;BME280;11218;48.886;9.426;2023-04-15T04:23:18;97006.16;;;5.46;78.48
22104;BME280;11218;48.886;9.426;2023-04-15T04:25:48;97007.44;;;5.43;79.35
22104;BME280;11218;48.886;9.426;2023-04-15T04:28:16;97012.28;;;5.46;79.03
22104;BME280;11218;48.886;9.426;2023-04-15T04:30:44;97012.28;;;5.46;79.09
22104;BME280;11218;48.886;9.426;2023-04-15T04:33:12;97021.34;;;5.45;79.38
22104;BME280;11218;48.886;9.426;2023-04-15T04:35:40;97029.13;;;5.47;79.80
22104;BME280;11218;48.886;9.426;2023-04-15T04:38:08;97028.56;;;5.45;77.88
22104;BME280;11218;48.886;9.426;2023-04-15T04:40:36;97035.56;;;5.34;78.07
22104;BME280;11218;48.886;9.426;2023-04-15T04:43:06;97029.59;;;5.27;78.28
22104;BME280;11218;48.886;9.426;2023-04-15T04:45:34;97039.94;;;5.23;79.16
22104;BME280;11218;48.886;9.426;2023-04-15T04:48:03;97035.56;;;5.17;79.57
22104;BME280;11218;48.886;9.426;2023-04-15T04:50:33;97038.25;;;5.17;79.34
22104;BME280;11218;48.886;9.426;2023-04-15T04:53:01;97035.06;;;5.20;79.36
22104;BME280;11218;48.886;9.426;2023-04-15T04:55:29;97036.16;;;5.19;79.47
22104;BME280;11218;48.886;9.426;2023-04-15T04:57:58;97033.72;;;5.18;80.03
22104;BME280;11218;48.886;9.426;2023-04-15T05:00:27;97033.72;;;5.18;79.94
22104;BME280;11218;48.886;9.426;2023-04-15T05:02:56;97037.19;;;5.18;79.50
22104;BME280;11218;48.886;9.426;2023-04-15T05:05:24;97033.22;;;5.21;79.44
22104;BME280;11218;48.886;9.426;2023-04-15T05:07:52;97034.59;;;5.23;80.18
22104;BME280;11218;48.886;9.426;2023-04-15T05:10:20;97030.06;;;5.24;78.80
22104;BME280;11218;48.886;9.426;2023-04-15T05:12:48;97038.31;;;5.22;79.40
22104;BME280;11218;48.886;9.426;2023-04-15T05:15:17;97029.25;;;5.23;79.21
22104;BME280;11218;48.886;9.426;2023-04-15T05:17:47;97033.78;;;5.23;79.01
22104;BME280;11218;48.886;9.426;2023-04-15T05:20:15;97020.19;;;5.24;79.36
22104;BME280;11218;48.886;9.426;2023-04-15T05:22:43;97026.34;;;5.25;79.24
22104;BME280;11218;48.886;9.426;2023-04-15T05:25:11;97028.78;;;5.26;79.23
22104;BME280;11218;48.886;9.426;2023-04-15T05:27:39;97030.97;;;5.29;79.61
22104;BME280;11218;48.886;9.426;2023-04-15T05:30:08;97038.97;;;5.29;79.28
22104;BME280;11218;48.886;9.426;2023-04-15T05:32:39;97040.81;;;5.29;78.33
22104;BME280;11218;48.886;9.426;2023-04-15T05:35:08;97034.19;;;5.32;77.95
22104;BME280;11218;48.886;9.426;2023-04-15T05:37:36;97041.63;;;5.29;78.07
22104;BME280;11218;48.886;9.426;2023-04-15T05:40:05;97046.97;;;5.29;78.20
22104;BME280;11218;48.886;9.426;2023-04-15T05:42:34;97047.88;;;5.35;78.80
22104;BME280;11218;48.886;9.426;2023-04-15T05:45:03;97046.00;;;5.36;78.37
22104;BME280;11218;48.886;9.426;2023-04-15T05:47:34;97048.91;;;5.34;78.03
22104;BME280;11218;48.886;9.426;2023-04-15T05:50:03;97050.22;;;5.32;78.14
22104;BME280;11218;48.886;9.426;2023-04-15T05:52:33;97056.09;;;5.34;78.49
22104;BME280;11218;48.886;9.426;2023-04-15T05:55:01;97051.09;;;5.37;78.63
22104;BME280;11218;48.886;9.426;2023-04-15T05:57:29;97052.00;;;5.43;78.73
22104;BME280;11218;48.886;9.426;2023-04-15T05:59:57;97058.22;;;5.48;78.79
22104;BME280;11218;48.886;9.426;2023-04-15T06:02:25;97065.84;;;5.56;78.54
22104;BME280;11218;48.886;9.426;2023-04-15T06:04:53;97062.53;;;5.66;78.03
22104;BME280;11218;48.886;9.426;2023-04-15T06:07:21;97062.94;;;5.75;78.45
22104;BME280;11218;48.886;9.426;2023-04-15T06:09:51;97067.50;;;5.91;78.35
22104;BME280;11218;48.886;9.426;2023-04-15T06:12:19;97068.75;;;6.05;77.96
22104;BME280;11218;48.886;9.426;2023-04-15T06:14:47;97069.38;;;6.12;77.22
22104;BME280;11218;48.886;9.426;2023-04-15T06:17:15;97064.84;;;6.13;76.96
22104;BME280;11218;48.886;9.426;2023-04-15T06:19:45;97064.84;;;6.13;77.38
22104;BME280;11218;48.886;9.426;2023-04-15T06:22:15;97067.28;;;6.14;77.78
22104;BME280;11218;48.886;9.426;2023-04-15T06:24:43;97071.06;;;6.18;77.86
22104;BME280;11218;48.886;9.426;2023-04-15T06:27:12;97069.19;;;6.36;77.87
22104;BME280;11218;48.886;9.426;2023-04-15T06:29:41;97068.22;;;6.64;77.05
22104;BME280;11218;48.886;9.426;2023-04-15T06:32:09;97077.63;;;6.93;76.81
22104;BME280;11218;48.886;9.426;2023-04-15T06:34:37;97067.97;;;7.14;74.66
22104;BME280;11218;48.886;9.426;2023-04-15T06:37:05;97062.66;;;7.19;75.38
22104;BME280;11218;48.886;9.426;2023-04-15T06:39:35;97067.97;;;7.14;76.52
22104;BME280;11218;48.886;9.426;2023-04-15T06:42:04;97068.22;;;7.12;75.98
22104;BME280;11218;48.886;9.426;2023-04-15T06:44:33;97070.09;;;7.12;76.41
22104;BME280;11218;48.886;9.426;2023-04-15T06:47:02;97074.06;;;7.09;76.50
22104;BME280;11218;48.886;9.426;2023-04-15T06:49:30;97074.81;;;7.05;77.37
22104;BME280;11218;48.886;9.426;2023-04-15T06:51:59;97076.69;;;7.04;77.81
22104;BME280;11218;48.886;9.426;2023-04-15T06:54:27;97074.56;;;7.06;78.81
22104;BME280;11218;48.886;9.426;2023-04-15T06:56:55;97068.72;;;7.09;77.99
22104;BME280;11218;48.886;9.426;2023-04-15T06:59:23;97066.34;;;7.13;79.18
22104;BME280;11218;48.886;9.426;2023-04-15T07:01:53;97073.63;;;7.17;79.55
22104;BME280;11218;48.886;9.426;2023-04-15T07:04:21;97072.06;;;7.21;79.62
22104;BME280;11218;48.886;9.426;2023-04-15T07:06:50;97070.84;;;7.34;79.12
22104;BME280;11218;48.886;9.426;2023-04-15T07:09:18;97071.53;;;7.51;78.04
22104;BME280;11218;48.886;9.426;2023-04-15T07:11:46;97070.00;;;7.61;77.93
22104;BME280;11218;48.886;9.426;2023-04-15T07:14:14;97074.59;;;7.65;77.39
22104;BME280;11218;48.886;9.426;2023-04-15T07:16:42;97066.59;;;7.70;76.70
22104;BME280;11218;48.886;9.426;2023-04-15T07:19:11;97064.00;;;7.80;77.37
22104;BME280;11218;48.886;9.426;2023-04-15T07:21:40;97071.81;;;7.87;76.58
22104;BME280;11218;48.886;9.426;2023-04-15T07:24:08;97069.22;;;7.97;77.46
22104;BME280;11218;48.886;9.426;2023-04-15T07:26:36;97066.63;;;8.07;76.61
22104;BME280;11218;48.886;9.426;2023-04-15T07:29:04;97073.59;;;8.08;77.43
22104;BME280;11218;48.886;9.426;2023-04-15T07:31:32;97072.56;;;8.14;77.21
22104;BME280;11218;48.886;9.426;2023-04-15T07:34:00;97075.88;;;8.32;76.29
22104;BME280;11218;48.886;9.426;2023-04-15T07:36:29;97066.63;;;8.49;76.36
22104;BME280;11218;48.886;9.426;2023-04-15T07:38:57;97069.75;;;8.88;76.80
22104;BME280;11218;48.886;9.426;2023-04-15T07:41:28;97062.09;;;9.43;76.48
22104;BME280;11218;48.886;9.426;2023-04-15T07:43:56;97068.00;;;9.85;72.38
22104;BME280;11218;48.886;9.426;2023-04-15T07:46:24;97062.34;;;10.02;70.70
22104;BME280;11218;48.886;9.426;2023-04-15T07:48:53;97058.84;;;10.17;70.50
22104;BME280;11218;48.886;9.426;2023-04-15T07:51:21;97057.75;;;10.38;70.32
22104;BME280;11218;48.886;9.426;2023-04-15T07:53:50;97055.81;;;10.49;69.95
22104;BME280;11218;48.886;9.426;2023-04-15T07:56:19;97063.63;;;10.50;69.09
22104;BME280;11218;48.886;9.426;2023-04-15T07:58:48;97063.38;;;10.42;68.88
22104;BME280;11218;48.886;9.426;2023-04-15T08:01:16;97059.91;;;10.36;68.56
22104;BME280;11218;48.886;9.426;2023-04-15T08:03:44;97054.19;;;10.53;67.59
22104;BME280;11218;48.886;9.426;2023-04-15T08:06:13;97053.88;;;10.75;66.45
22104;BME280;11218;48.886;9.426;2023-04-15T08:08:41;97054.72;;;11.19;64.48
22104;BME280;11218;48.886;9.426;2023-04-15T08:11:11;97046.94;;;11.57;61.13
22104;BME280;11218;48.886;9.426;2023-04-15T08:13:40;97056.66;;;11.92;59.52
22104;BME280;11218;48.886;9.426;2023-04-15T08:16:14;97051.06;;;12.12;58.20
22104;BME280;11218;48.886;9.426;2023-04-15T08:18:44;97047.53;;;12.17;57.87
22104;BME280;11218;48.886;9.426;2023-04-15T08:21:15;97046.56;;;12.32;57.63
22104;BME280;11218;48.886;9.426;2023-04-15T08:23:43;97053.25;;;12.39;56.79
22104;BME280;11218;48.886;9.426;2023-04-15T08:26:13;97055.22;;;12.58;56.56
22104;BME280;11218;48.886;9.426;2023-04-15T08:28:42;97059.00;;;12.57;54.73
22104;BME280;11218;48.886;9.426;2023-04-15T08:31:11;97056.94;;;12.48;55.95
22104;BME280;11218;48.886;9.426;2023-04-15T08:33:39;97056.41;;;12.46;55.28
22104;BME280;11218;48.886;9.426;2023-04-15T08:36:07;97054.19;;;12.25;55.75
22104;BME280;11218;48.886;9.426;2023-04-15T08:38:36;97063.53;;;12.08;55.93
22104;BME280;11218;48.886;9.426;2023-04-15T08:41:07;97061.06;;;11.83;56.92
22104;BME280;11218;48.886;9.426;2023-04-15T08:43:44;97062.69;;;11.84;56.01
22104;BME280;11218;48.886;9.426;2023-04-15T08:46:14;97063.81;;;11.78;56.15
22104;BME280;11218;48.886;9.426;2023-04-15T08:48:43;97053.72;;;11.89;56.57
22104;BME280;11218;48.886;9.426;2023-04-15T08:51:11;97061.97;;;12.02;57.92
22104;BME280;11218;48.886;9.426;2023-04-15T08:53:42;97056.00;;;12.05;57.81
22104;BME280;11218;48.886;9.426;2023-04-15T08:56:10;97055.25;;;12.00;58.03
22104;BME280;11218;48.886;9.426;2023-04-15T08:58:40;97047.72;;;11.97;59.09
22104;BME280;11218;48.886;9.426;2023-04-15T09:01:09;97047.91;;;12.05;58.44
22104;BME280;11218;48.886;9.426;2023-04-15T09:03:37;97064.63;;;12.07;58.37
22104;BME280;11218;48.886;9.426;2023-04-15T09:06:05;97059.78;;;12.04;58.84
22104;BME280;11218;48.886;9.426;2023-04-15T09:08:33;97063.66;;;12.22;59.18
22104;BME280;11218;48.886;9.426;2023-04-15T09:11:01;97058.00;;;12.24;59.14
22104;BME280;11218;48.886;9.426;2023-04-15T09:13:30;97063.81;;;12.36;59.02
22104;BME280;11218;48.886;9.426;2023-04-15T09:16:00;97064.28;;;12.43;57.78
22104;BME280;11218;48.886;9.426;2023-04-15T09:18:30;97072.31;;;12.48;57.11
22104;BME280;11218;48.886;9.426;2023-04-15T09:21:09;97075.44;;;12.60;57.63
22104;BME280;11218;48.886;9.426;2023-04-15T09:23:38;97071.22;;;12.73;56.51
22104;BME280;11218;48.886;9.426;2023-04-15T09:26:07;97081.34;;;12.62;56.47
22104;BME280;11218;48.886;9.426;2023-04-15T09:28:40;97077.63;;;12.58;57.81
22104;BME280;11218;48.886;9.426;2023-04-15T09:31:10;97084.84;;;12.63;56.73
22104;BME280;11218;48.886;9.426;2023-04-15T09:33:54;97081.50;;;12.71;57.43
22104;BME280;11218;48.886;9.426;2023-04-15T09:36:22;97080.81;;;12.84;56.84
22104;BME280;11218;48.886;9.426;2023-04-15T09:38:56;97077.22;;;13.12;56.82
22104;BME280;11218;48.886;9.426;2023-04-15T09:41:25;97076.09;;;13.37;55.84
22104;BME280;11218;48.886;9.426;2023-04-15T09:43:54;97079.84;;;13.60;54.42
22104;BME280;11218;48.886;9.426;2023-04-15T09:46:39;97080.50;;;13.71;55.44
22104;BME280;11218;48.886;9.426;2023-04-15T09:49:08;97070.69;;;13.94;55.21
22104;BME280;11218;48.886;9.426;2023-04-15T09:51:37;97072.91;;;14.05;53.25
22104;BME280;11218;48.886;9.426;2023-04-15T09:54:05;97069.44;;;14.19;53.19
22104;BME280;11218;48.886;9.426;2023-04-15T09:56:34;97076.03;;;14.45;52.62
22104;BME280;11218;48.886;9.426;2023-04-15T09:59:04;97066.63;;;14.56;52.04
22104;BME280;11218;48.886;9.426;2023-04-15T10:01:34;97069.75;;;14.63;52.38
22104;BME280;11218;48.886;9.426;2023-04-15T10:04:03;97065.81;;;14.42;51.36
22104;BME280;11218;48.886;9.426;2023-04-15T10:06:33;97073.28;;;14.31;51.66
22104;BME280;11218;48.886;9.426;2023-04-15T10:09:01;97070.25;;;14.33;50.84
22104;BME280;11218;48.886;9.426;2023-04-15T10:11:30;97073.22;;;14.18;50.70
22104;BME280;11218;48.886;9.426;2023-04-15T10:13:59;97080.75;;;14.07;49.24
22104;BME280;11218;48.886;9.426;2023-04-15T10:16:28;97082.75;;;14.15;47.84
22104;BME280;11218;48.886;9.426;2023-04-15T10:19:01;97081.72;;;13.97;47.50
22104;BME280;11218;48.886;9.426;2023-04-15T10:21:32;97085.66;;;14.05;47.78
22104;BME280;11218;48.886;9.426;2023-04-15T10:24:02;97087.72;;;13.94;46.92
22104;BME280;11218;48.886;9.426;2023-04-15T10:26:31;97081.78;;;13.92;47.51
22104;BME280;11218;48.886;9.426;2023-04-15T10:29:00;97092.03;;;13.95;47.47
22104;BME280;11218;48.886;9.426;2023-04-15T10:31:29;97084.34;;;14.02;48.80
22104;BME280;11218;48.886;9.426;2023-04-15T10:33:58;97083.25;;;14.03;48.11
22104;BME280;11218;48.886;9.426;2023-04-15T10:36:33;97084.63;;;14.01;48.01
22104;BME280;11218;48.886;9.426;2023-04-15T10:39:01;97087.72;;;13.94;48.26
22104;BME280;11218;48.886;9.426;2023-04-15T10:41:29;97105.97;;;14.02;49.10
22104;BME280;11218;48.886;9.426;2023-04-15T10:44:01;97096.78;;;14.17;49.12
22104;BME280;11218;48.886;9.426;2023-04-15T10:46:35;97092.00;;;14.28;47.77
22104;BME280;11218;48.886;9.426;2023-04-15T10:49:07;97099.03;;;13.96;46.06
22104;BME280;11218;48.886;9.426;2023-04-15T10:51:40;97097.59;;;13.85;47.08
22104;BME280;11218;48.886;9.426;2023-04-15T10:54:13;97105.13;;;13.88;48.20
22104;BME280;11218;48.886;9.426;2023-04-15T10:56:42;97100.22;;;13.90;47.70
22104;BME280;11218;48.886;9.426;2023-04-15T10:59:10;97099.78;;;14.02;47.42
22104;BME280;11218;48.886;9.426;2023-04-15T11:01:54;97101.38;;;14.03;45.39
22104;BME280;11218;48.886;9.426;2023-04-15T11:07:37;97095.03;;;14.40;46.38
22104;BME280;11218;48.886;9.426;2023-04-15T11:13:26;97099.38;;;14.41;46.48
22104;BME280;11218;48.886;9.426;2023-04-15T11:15:56;97099.66;;;14.39;47.36
22104;BME280;11218;48.886;9.426;2023-04-15T11:18:32;97098.94;;;14.34;47.05
22104;BME280;11218;48.886;9.426;2023-04-15T11:21:02;97092.13;;;14.36;48.45
22104;BME280;11218;48.886;9.426;2023-04-15T11:23:35;97103.72;;;14.23;47.71
22104;BME280;11218;48.886;9.426;2023-04-15T11:26:05;97098.31;;;14.23;48.01
22104;BME280;11218;48.886;9.426;2023-04-15T11:28:36;97110.66;;;14.29;48.10
22104;BME280;11218;48.886;9.426;2023-04-15T11:31:25;97115.66;;;14.22;48.30
22104;BME280;11218;48.886;9.426;2023-04-15T11:33:55;97105.50;;;14.14;48.29
22104;BME280;11218;48.886;9.426;2023-04-15T11:36:24;97114.81;;;14.08;49.97
22104;BME280;11218;48.886;9.426;2023-04-15T11:38:57;97125.50;;;13.99;47.45
22104;BME280;11218;48.886;9.426;2023-04-15T11:41:25;97130.94;;;13.80;47.71
22104;BME280;11218;48.886;9.426;2023-04-15T11:43:53;97126.91;;;13.78;48.75
22104;BME280;11218;48.886;9.426;2023-04-15T11:46:28;97136.34;;;13.80;48.57
22104;BME280;11218;48.886;9.426;2023-04-15T11:48:56;97134.66;;;13.66;49.37
22104;BME280;11218;48.886;9.426;2023-04-15T11:51:25;97137.44;;;13.61;49.26
22104;BME280;11218;48.886;9.426;2023-04-15T11:54:00;97142.84;;;13.61;50.27
22104;BME280;11218;48.886;9.426;2023-04-15T11:56:29;97134.66;;;13.66;49.00
22104;BME280;11218;48.886;9.426;2023-04-15T11:58:58;97143.28;;;13.68;49.45
22104;BME280;11218;48.886;9.426;2023-04-15T12:01:30;97148.03;;;13.57;50.16
22104;BME280;11218;48.886;9.426;2023-04-15T12:03:58;97158.00;;;13.38;50.00
22104;BME280;11218;48.886;9.426;2023-04-15T12:06:31;97155.22;;;13.43;51.54
22104;BME280;11218;48.886;9.426;2023-04-15T12:09:07;97148.16;;;13.28;48.36
22104;BME280;11218;48.886;9.426;2023-04-15T12:11:38;97147.34;;;13.28;48.24
22104;BME280;11218;48.886;9.426;2023-04-15T12:14:23;97153.78;;;13.32;47.10
22104;BME280;11218;48.886;9.426;2023-04-15T12:16:53;97152.69;;;13.33;48.30
22104;BME280;11218;48.886;9.426;2023-04-15T12:19:25;97162.28;;;13.20;48.84
22104;BME280;11218;48.886;9.426;2023-04-15T12:21:58;97156.41;;;13.13;49.82
22104;BME280;11218;48.886;9.426;2023-04-15T12:24:30;97162.59;;;13.13;49.09
22104;BME280;11218;48.886;9.426;2023-04-15T12:27:04;97177.03;;;13.04;49.17
22104;BME280;11218;48.886;9.426;2023-04-15T12:29:33;97173.63;;;12.93;50.06
22104;BME280;11218;48.886;9.426;2023-04-15T12:32:04;97181.50;;;12.90;50.81
22104;BME280;11218;48.886;9.426;2023-04-15T12:34:34;97178.28;;;12.88;51.70
22104;BME280;11218;48.886;9.426;2023-04-15T12:37:03;97185.25;;;12.94;49.90
22104;BME280;11218;48.886;9.426;2023-04-15T12:39:36;97199.31;;;12.91;50.22
22104;BME280;11218;48.886;9.426;2023-04-15T12:42:05;97200.34;;;12.95;45.72
22104;BME280;11218;48.886;9.426;2023-04-15T12:44:34;97200.94;;;12.92;42.83
22104;BME280;11218;48.886;9.426;2023-04-15T12:47:02;97208.03;;;12.82;43.22
22104;BME280;11218;48.886;9.426;2023-04-15T12:49:31;97217.56;;;12.75;41.82
22104;BME280;11218;48.886;9.426;2023-04-15T12:52:00;97224.56;;;12.76;41.40
22104;BME280;11218;48.886;9.426;2023-04-15T12:54:29;97221.06;;;12.75;40.16
22104;BME280;11218;48.886;9.426;2023-04-15T12:56:59;97216.28;;;12.67;40.18
22104;BME280;11218;48.886;9.426;2023-04-15T12:59:28;97237.88;;;12.67;41.32
22104;BME280;11218;48.886;9.426;2023-04-15T13:01:56;97229.31;;;12.60;40.90
22104;BME280;11218;48.886;9.426;2023-04-15T13:04:26;97237.44;;;12.60;41.85
22104;BME280;11218;48.886;9.426;2023-04-15T13:06:56;97238.84;;;12.53;42.31
22104;BME280;11218;48.886;9.426;2023-04-15T13:09:24;97238.88;;;12.47;42.20
22104;BME280;11218;48.886;9.426;2023-04-15T13:11:52;97247.28;;;12.41;42.03
22104;BME280;11218;48.886;9.426;2023-04-15T13:14:22;97251.09;;;12.35;42.12
22104;BME280;11218;48.886;9.426;2023-04-15T13:16:49;97249.78;;;12.32;42.97
22104;BME280;11218;48.886;9.426;2023-04-15T13:19:18;97255.44;;;12.31;42.62
22104;BME280;11218;48.886;9.426;2023-04-15T13:21:47;97251.16;;;12.30;43.25
22104;BME280;11218;48.886;9.426;2023-04-15T13:24:16;97265.41;;;12.35;44.09
22104;BME280;11218;48.886;9.426;2023-04-15T13:26:44;97269.41;;;12.43;44.44